sensor_id;sensor_type;location;lat;lon;timestamp;temperature;humidity
36442;DHT22;64346;50.820;16.274;2022-12-07T00:01:30;3.60;99.90
36442;DHT22;64346;50.820;16.274;2022-12-07T00:04:00;3.60;99.90
36442;DHT22;64346;50.820;16.274;2022-12-07T00:06:40;3.60;99.90
36442;DHT22;64346;50.820;16.274;2022-12-07T00:09:12;3.60;99.90
36442;DHT22;64346;50.820;16.274;2022-12-07T00:11:41;3.60;99.90
36442;DHT22;64346;50.820;16.274;2022-12-07T00:14:12;3.60;99.90
36442;DHT22;64346;50.820;16.274;2022-12-07T00:16:40;3.60;99.90
36442;DHT22;64346;50.820;16.274;2022-12-07T00:19:08;3.60;99.90
36442;DHT22;64346;50.820;16.274;2022-12-07T00:21:36;3.60;99.90
36442;DHT22;64346;50.820;16.274;2022-12-07T00:24:04;3.50;99.90
36442;DHT22;64346;50.820;16.274;2022-12-07T00:26:38;3.50;99.90
36442;DHT22;64346;50.820;16.274;2022-12-07T00:29:16;3.50;99.90
36442;DHT22;64346;50.820;16.274;2022-12-07T00:31:44;3.50;99.90
36442;DHT22;64346;50.820;16.274;2022-12-07T00:34:18;3.50;99.90
36442;DHT22;64346;50.820;16.274;2022-12-07T00:36:46;3.60;99.90
36442;DHT22;64346;50.820;16.274;2022-12-07T00:39:13;3.60;99.90
36442;DHT22;64346;50.820;16.274;2022-12-07T00:41:41;3.50;99.90
36442;DHT22;64346;50.820;16.274;2022-12-07T00:44:13;3.60;99.90
36442;DHT22;64346;50.820;16.274;2022-12-07T00:46:45;3.50;99.90
36442;DHT22;64346;50.820;16.274;2022-12-07T00:49:12;3.50;99.90
36442;DHT22;64346;50.820;16.274;2022-12-07T00:51:42;3.50;99.90
36442;DHT22;64346;50.820;16.274;2022-12-07T00:54:10;3.50;99.90
36442;DHT22;64346;50.820;16.274;2022-12-07T00:56:39;3.40;99.90
36442;DHT22;64346;50.820;16.274;2022-12-07T00:59:12;3.30;99.90
36442;DHT22;64346;50.820;16.274;2022-12-07T01:01:40;3.30;99.90
36442;DHT22;64346;50.820;16.274;2022-12-07T01:04:09;3.30;99.90
36442;DHT22;64346;50.820;16.274;2022-12-07T01:06:37;3.30;99.90
36442;DHT22;64346;50.820;16.274;2022-12-07T01:09:07;3.30;99.90
36442;DHT22;64346;50.820;16.274;2022-12-07T01:11:37;3.30;99.90
36442;DHT22;64346;50.820;16.274;2022-12-07T01:14:04;3.40;99.90
36442;DHT22;64346;50.820;16.274;2022-12-07T01:16:34;3.30;99.90
36442;DHT22;64346;50.820;16.274;2022-12-07T01:19:02;3.40;99.90
36442;DHT22;64346;50.820;16.274;2022-12-07T01:21:32;3.30;99.90
36442;DHT22;64346;50.820;16.274;2022-12-07T01:24:02;3.30;99.90
36442;DHT22;64346;50.820;16.274;2022-12-07T01:26:30;3.30;99.90
36442;DHT22;64346;50.820;16.274;2022-12-07T01:28:57;3.30;99.90
36442;DHT22;64346;50.820;16.274;2022-12-07T01:31:26;3.30;99.90
36442;DHT22;64346;50.820;16.274;2022-12-07T01:33:55;3.30;99.90
36442;DHT22;64346;50.820;16.274;2022-12-07T01:38:57;3.30;99.90
36442;DHT22;64346;50.820;16.274;2022-12-07T01:41:28;3.20;99.90
36442;DHT22;64346;50.820;16.274;2022-12-07T01:44:20;3.30;99.90
36442;DHT22;64346;50.820;16.274;2022-12-07T01:46:52;3.20;99.90
36442;DHT22;64346;50.820;16.274;2022-12-07T01:49:40;3.20;99.90
36442;DHT22;64346;50.820;16.274;2022-12-07T01:52:34;3.30;99.90
36442;DHT22;64346;50.820;16.274;2022-12-07T01:55:09;3.20;99.90
36442;DHT22;64346;50.820;16.274;2022-12-07T01:57:49;3.30;99.90
36442;DHT22;64346;50.820;16.274;2022-12-07T02:00:18;3.30;99.90
36442;DHT22;64346;50.820;16.274;2022-12-07T02:03:00;3.30;99.90
36442;DHT22;64346;50.820;16.274;2022-12-07T02:05:28;3.30;99.90
36442;DHT22;64346;50.820;16.274;2022-12-07T02:07:57;3.30;99.90
36442;DHT22;64346;50.820;16.274;2022-12-07T02:10:30;3.30;99.90
36442;DHT22;64346;50.820;16.274;2022-12-07T02:13:02;3.30;99.90
36442;DHT22;64346;50.820;16.274;2022-12-07T02:29:49;3.30;99.90
36442;DHT22;64346;50.820;16.274;2022-12-07T02:35:59;3.40;99.90
36442;DHT22;64346;50.820;16.274;2022-12-07T02:38:47;3.40;99.90
36442;DHT22;64346;50.820;16.274;2022-12-07T02:44:10;3.40;99.90
36442;DHT22;64346;50.820;16.274;2022-12-07T02:46:49;3.40;99.90
36442;DHT22;64346;50.820;16.274;2022-12-07T02:49:18;3.40;99.90
36442;DHT22;64346;50.820;16.274;2022-12-07T02:51:46;3.40;99.90
36442;DHT22;64346;50.820;16.274;2022-12-07T02:54:18;3.40;99.90
36442;DHT22;64346;50.820;16.274;2022-12-07T02:56:48;3.50;99.90
36442;DHT22;64346;50.820;16.274;2022-12-07T02:59:49;3.50;99.90
36442;DHT22;64346;50.820;16.274;2022-12-07T03:02:25;3.40;99.90
36442;DHT22;64346;50.820;16.274;2022-12-07T03:07:51;3.40;99.90
36442;DHT22;64346;50.820;16.274;2022-12-07T03:13:31;3.50;99.90
36442;DHT22;64346;50.820;16.274;2022-12-07T03:16:15;3.50;99.90
36442;DHT22;64346;50.820;16.274;2022-12-07T03:18:57;3.40;99.90
36442;DHT22;64346;50.820;16.274;2022-12-07T03:21:31;3.50;99.90
36442;DHT22;64346;50.820;16.274;2022-12-07T03:24:02;3.40;99.90
36442;DHT22;64346;50.820;16.274;2022-12-07T03:26:35;3.40;99.90
36442;DHT22;64346;50.820;16.274;2022-12-07T03:29:10;3.40;99.90
36442;DHT22;64346;50.820;16.274;2022-12-07T03:31:42;3.40;99.90
36442;DHT22;64346;50.820;16.274;2022-12-07T03:34:27;3.40;99.90
36442;DHT22;64346;50.820;16.274;2022-12-07T03:37:12;3.50;99.90
36442;DHT22;64346;50.820;16.274;2022-12-07T03:42:18;3.50;99.90
36442;DHT22;64346;50.820;16.274;2022-12-07T03:44:46;3.50;99.90
36442;DHT22;64346;50.820;16.274;2022-12-07T03:52:53;3.40;99.90
36442;DHT22;64346;50.820;16.274;2022-12-07T03:55:29;3.40;99.90
36442;DHT22;64346;50.820;16.274;2022-12-07T03:58:07;3.40;99.90
36442;DHT22;64346;50.820;16.274;2022-12-07T04:00:41;3.40;99.90
36442;DHT22;64346;50.820;16.274;2022-12-07T04:03:11;3.40;99.90
36442;DHT22;64346;50.820;16.274;2022-12-07T04:05:39;3.40;99.90
36442;DHT22;64346;50.820;16.274;2022-12-07T04:08:06;3.40;99.90
36442;DHT22;64346;50.820;16.274;2022-12-07T04:10:34;3.40;99.90
36442;DHT22;64346;50.820;16.274;2022-12-07T04:13:04;3.40;99.90
36442;DHT22;64346;50.820;16.274;2022-12-07T04:15:31;3.50;99.90
36442;DHT22;64346;50.820;16.274;2022-12-07T04:18:01;3.50;99.90
36442;DHT22;64346;50.820;16.274;2022-12-07T04:20:28;3.50;99.90
36442;DHT22;64346;50.820;16.274;2022-12-07T04:22:55;3.50;99.90
36442;DHT22;64346;50.820;16.274;2022-12-07T04:25:23;3.50;99.90
36442;DHT22;64346;50.820;16.274;2022-12-07T04:27:53;3.50;99.90
36442;DHT22;64346;50.820;16.274;2022-12-07T04:30:20;3.40;99.90
36442;DHT22;64346;50.820;16.274;2022-12-07T04:32:47;3.40;99.90
36442;DHT22;64346;50.820;16.274;2022-12-07T04:35:15;3.40;99.90
36442;DHT22;64346;50.820;16.274;2022-12-07T04:37:46;3.50;99.90
36442;DHT22;64346;50.820;16.274;2022-12-07T04:40:16;3.50;99.90
36442;DHT22;64346;50.820;16.274;2022-12-07T04:42:43;3.50;99.90
36442;DHT22;64346;50.820;16.274;2022-12-07T04:45:12;3.50;99.90
36442;DHT22;64346;50.820;16.274;2022-12-07T04:47:39;3.50;99.90
36442;DHT22;64346;50.820;16.274;2022-12-07T04:50:08;3.50;99.90
36442;DHT22;64346;50.820;16.274;2022-12-07T04:52:36;3.50;99.90
36442;DHT22;64346;50.820;16.274;2022-12-07T04:55:03;3.50;99.90
36442;DHT22;64346;50.820;16.274;2022-12-07T04:57:30;3.60;99.90
36442;DHT22;64346;50.820;16.274;2022-12-07T04:59:58;3.60;99.90
36442;DHT22;64346;50.820;16.274;2022-12-07T05:02:27;3.60;99.90
36442;DHT22;64346;50.820;16.274;2022-12-07T05:04:55;3.70;99.90
36442;DHT22;64346;50.820;16.274;2022-12-07T05:07:22;3.70;99.90
36442;DHT22;64346;50.820;16.274;2022-12-07T05:09:50;3.70;99.90
36442;DHT22;64346;50.820;16.274;2022-12-07T05:12:17;3.60;99.90
36442;DHT22;64346;50.820;16.274;2022-12-07T05:14:46;3.60;99.90
36442;DHT22;64346;50.820;16.274;2022-12-07T05:17:16;3.60;99.90
36442;DHT22;64346;50.820;16.274;2022-12-07T05:19:43;3.50;99.90
36442;DHT22;64346;50.820;16.274;2022-12-07T05:22:13;3.40;99.90
36442;DHT22;64346;50.820;16.274;2022-12-07T05:24:40;3.40;99.90
36442;DHT22;64346;50.820;16.274;2022-12-07T05:27:10;3.40;99.90
36442;DHT22;64346;50.820;16.274;2022-12-07T05:29:40;3.40;99.90
36442;DHT22;64346;50.820;16.274;2022-12-07T05:32:07;3.30;99.90
36442;DHT22;64346;50.820;16.274;2022-12-07T05:34:34;3.30;99.90
36442;DHT22;64346;50.820;16.274;2022-12-07T05:37:01;3.30;99.90
36442;DHT22;64346;50.820;16.274;2022-12-07T05:39:31;3.30;99.90
36442;DHT22;64346;50.820;16.274;2022-12-07T05:41:58;3.30;99.90
36442;DHT22;64346;50.820;16.274;2022-12-07T05:44:26;3.30;99.90
36442;DHT22;64346;50.820;16.274;2022-12-07T05:46:53;3.30;99.90
36442;DHT22;64346;50.820;16.274;2022-12-07T05:49:23;3.30;99.90
36442;DHT22;64346;50.820;16.274;2022-12-07T05:51:50;3.30;99.90
36442;DHT22;64346;50.820;16.274;2022-12-07T05:54:17;3.30;99.90
36442;DHT22;64346;50.820;16.274;2022-12-07T05:56:45;3.30;99.90
36442;DHT22;64346;50.820;16.274;2022-12-07T05:59:12;3.30;99.90
36442;DHT22;64346;50.820;16.274;2022-12-07T06:01:39;3.30;99.90
36442;DHT22;64346;50.820;16.274;2022-12-07T06:04:07;3.30;99.90
36442;DHT22;64346;50.820;16.274;2022-12-07T06:06:34;3.30;99.90
36442;DHT22;64346;50.820;16.274;2022-12-07T06:09:04;3.30;99.90
36442;DHT22;64346;50.820;16.274;2022-12-07T06:11:31;3.30;99.90
36442;DHT22;64346;50.820;16.274;2022-12-07T06:13:59;3.30;99.90
36442;DHT22;64346;50.820;16.274;2022-12-07T06:16:28;3.30;99.90
36442;DHT22;64346;50.820;16.274;2022-12-07T06:18:58;3.30;99.90
36442;DHT22;64346;50.820;16.274;2022-12-07T06:21:25;3.20;99.90
36442;DHT22;64346;50.820;16.274;2022-12-07T06:23:53;3.20;99.90
36442;DHT22;64346;50.820;16.274;2022-12-07T06:26:21;3.20;99.90
36442;DHT22;64346;50.820;16.274;2022-12-07T06:28:48;3.30;99.90
36442;DHT22;64346;50.820;16.274;2022-12-07T06:31:18;3.20;99.90
36442;DHT22;64346;50.820;16.274;2022-12-07T06:33:48;3.20;99.90
36442;DHT22;64346;50.820;16.274;2022-12-07T06:36:15;3.20;99.90
36442;DHT22;64346;50.820;16.274;2022-12-07T06:38:42;3.20;99.90
36442;DHT22;64346;50.820;16.274;2022-12-07T06:41:12;3.20;99.90
36442;DHT22;64346;50.820;16.274;2022-12-07T06:43:39;3.30;99.90
36442;DHT22;64346;50.820;16.274;2022-12-07T06:46:09;3.30;99.90
36442;DHT22;64346;50.820;16.274;2022-12-07T06:48:37;3.20;99.90
36442;DHT22;64346;50.820;16.274;2022-12-07T06:51:04;3.20;99.90
36442;DHT22;64346;50.820;16.274;2022-12-07T06:53:32;3.20;99.90
36442;DHT22;64346;50.820;16.274;2022-12-07T06:56:04;3.30;99.90
36442;DHT22;64346;50.820;16.274;2022-12-07T06:58:34;3.30;99.90
36442;DHT22;64346;50.820;16.274;2022-12-07T07:01:01;3.30;99.90
36442;DHT22;64346;50.820;16.274;2022-12-07T07:03:29;3.30;99.90
36442;DHT22;64346;50.820;16.274;2022-12-07T07:05:56;3.30;99.90
36442;DHT22;64346;50.820;16.274;2022-12-07T07:08:25;3.40;99.90
36442;DHT22;64346;50.820;16.274;2022-12-07T07:10:55;3.40;99.90
36442;DHT22;64346;50.820;16.274;2022-12-07T07:13:22;3.50;99.90
36442;DHT22;64346;50.820;16.274;2022-12-07T07:15:50;3.50;99.90
36442;DHT22;64346;50.820;16.274;2022-12-07T07:18:17;3.60;99.90
36442;DHT22;64346;50.820;16.274;2022-12-07T07:20:44;3.60;99.90
36442;DHT22;64346;50.820;16.274;2022-12-07T07:23:14;3.60;99.90
36442;DHT22;64346;50.820;16.274;2022-12-07T07:25:44;3.60;99.90
36442;DHT22;64346;50.820;16.274;2022-12-07T07:28:11;3.70;99.90
36442;DHT22;64346;50.820;16.274;2022-12-07T07:30:38;3.70;99.90
36442;DHT22;64346;50.820;16.274;2022-12-07T07:33:06;3.70;99.90
36442;DHT22;64346;50.820;16.274;2022-12-07T07:35:36;3.70;99.90
36442;DHT22;64346;50.820;16.274;2022-12-07T07:38:07;3.60;99.90
36442;DHT22;64346;50.820;16.274;2022-12-07T07:40:35;3.70;99.90
36442;DHT22;64346;50.820;16.274;2022-12-07T07:43:02;3.70;99.90
36442;DHT22;64346;50.820;16.274;2022-12-07T07:45:32;3.90;99.90
36442;DHT22;64346;50.820;16.274;2022-12-07T07:47:59;4.60;99.90
36442;DHT22;64346;50.820;16.274;2022-12-07T07:50:26;5.40;99.90
36442;DHT22;64346;50.820;16.274;2022-12-07T07:52:54;5.70;99.90
36442;DHT22;64346;50.820;16.274;2022-12-07T07:55:25;6.00;99.90
36442;DHT22;64346;50.820;16.274;2022-12-07T07:57:56;5.90;99.90
36442;DHT22;64346;50.820;16.274;2022-12-07T08:00:23;5.70;99.90
36442;DHT22;64346;50.820;16.274;2022-12-07T08:02:51;5.50;99.90
36442;DHT22;64346;50.820;16.274;2022-12-07T08:05:18;5.50;99.90
36442;DHT22;64346;50.820;16.274;2022-12-07T08:07:48;6.20;99.90
36442;DHT22;64346;50.820;16.274;2022-12-07T08:12:45;12.40;99.90
36442;DHT22;64346;50.820;16.274;2022-12-07T08:15:15;15.40;91.40
36442;DHT22;64346;50.820;16.274;2022-12-07T08:17:42;16.80;80.00
36442;DHT22;64346;50.820;16.274;2022-12-07T08:20:12;17.30;75.50
36442;DHT22;64346;50.820;16.274;2022-12-07T08:22:42;17.70;71.20
36442;DHT22;64346;50.820;16.274;2022-12-07T08:25:11;18.10;68.20
36442;DHT22;64346;50.820;16.274;2022-12-07T08:27:39;18.00;66.10
36442;DHT22;64346;50.820;16.274;2022-12-07T08:30:06;18.40;64.50
36442;DHT22;64346;50.820;16.274;2022-12-07T08:32:36;19.30;63.50
36442;DHT22;64346;50.820;16.274;2022-12-07T08:35:06;20.30;60.20
36442;DHT22;64346;50.820;16.274;2022-12-07T08:37:34;21.70;56.50
36442;DHT22;64346;50.820;16.274;2022-12-07T08:40:01;23.30;51.90
36442;DHT22;64346;50.820;16.274;2022-12-07T08:42:29;24.30;50.10
36442;DHT22;64346;50.820;16.274;2022-12-07T08:44:57;25.60;48.70
36442;DHT22;64346;50.820;16.274;2022-12-07T08:47:25;26.40;47.10
36442;DHT22;64346;50.820;16.274;2022-12-07T08:49:53;26.80;44.80
36442;DHT22;64346;50.820;16.274;2022-12-07T08:52:23;26.90;44.40
36442;DHT22;64346;50.820;16.274;2022-12-07T08:54:50;27.70;43.70
36442;DHT22;64346;50.820;16.274;2022-12-07T08:57:17;28.60;42.60
36442;DHT22;64346;50.820;16.274;2022-12-07T08:59:45;29.70;41.10
36442;DHT22;64346;50.820;16.274;2022-12-07T09:02:12;30.00;40.20
36442;DHT22;64346;50.820;16.274;2022-12-07T09:04:42;29.50;40.00
36442;DHT22;64346;50.820;16.274;2022-12-07T09:07:09;27.30;41.00
36442;DHT22;64346;50.820;16.274;2022-12-07T09:09:37;25.00;42.50
36442;DHT22;64346;50.820;16.274;2022-12-07T09:12:06;23.90;44.10
36442;DHT22;64346;50.820;16.274;2022-12-07T09:14:36;24.30;43.60
36442;DHT22;64346;50.820;16.274;2022-12-07T09:17:11;23.70;44.10
36442;DHT22;64346;50.820;16.274;2022-12-07T09:19:41;21.70;46.20
36442;DHT22;64346;50.820;16.274;2022-12-07T09:22:09;20.40;47.80
36442;DHT22;64346;50.820;16.274;2022-12-07T09:24:38;19.20;49.60
36442;DHT22;64346;50.820;16.274;2022-12-07T09:27:06;18.50;50.70
36442;DHT22;64346;50.820;16.274;2022-12-07T09:29:33;18.10;51.40
36442;DHT22;64346;50.820;16.274;2022-12-07T09:32:03;18.90;51.00
36442;DHT22;64346;50.820;16.274;2022-12-07T09:34:37;19.20;49.90
36442;DHT22;64346;50.820;16.274;2022-12-07T09:37:07;18.40;50.80
36442;DHT22;64346;50.820;16.274;2022-12-07T09:39:39;17.00;53.00
36442;DHT22;64346;50.820;16.274;2022-12-07T09:42:37;15.70;55.10
36442;DHT22;64346;50.820;16.274;2022-12-07T09:45:06;14.20;58.20
36442;DHT22;64346;50.820;16.274;2022-12-07T09:47:36;12.90;61.20
36442;DHT22;64346;50.820;16.274;2022-12-07T09:50:10;11.80;63.50
36442;DHT22;64346;50.820;16.274;2022-12-07T09:52:39;11.10;66.00
36442;DHT22;64346;50.820;16.274;2022-12-07T09:55:15;10.50;67.90
36442;DHT22;64346;50.820;16.274;2022-12-07T09:57:46;10.40;68.70
36442;DHT22;64346;50.820;16.274;2022-12-07T10:00:18;11.00;68.10
36442;DHT22;64346;50.820;16.274;2022-12-07T10:02:57;12.10;65.70
36442;DHT22;64346;50.820;16.274;2022-12-07T10:05:34;12.80;64.30
36442;DHT22;64346;50.820;16.274;2022-12-07T10:08:03;12.80;64.50
36442;DHT22;64346;50.820;16.274;2022-12-07T10:10:34;13.20;64.40
36442;DHT22;64346;50.820;16.274;2022-12-07T10:13:09;14.80;61.80
36442;DHT22;64346;50.820;16.274;2022-12-07T10:15:55;16.40;58.80
36442;DHT22;64346;50.820;16.274;2022-12-07T10:18:40;15.00;59.80
36442;DHT22;64346;50.820;16.274;2022-12-07T10:21:12;12.70;63.50
36442;DHT22;64346;50.820;16.274;2022-12-07T10:26:34;9.50;72.70
36442;DHT22;64346;50.820;16.274;2022-12-07T10:34:46;6.50;93.50
36442;DHT22;64346;50.820;16.274;2022-12-07T10:37:19;5.90;99.90
36442;DHT22;64346;50.820;16.274;2022-12-07T10:39:54;5.50;99.90
36442;DHT22;64346;50.820;16.274;2022-12-07T10:42:22;5.10;99.90
36442;DHT22;64346;50.820;16.274;2022-12-07T10:45:12;5.00;99.90
36442;DHT22;64346;50.820;16.274;2022-12-07T10:47:48;4.90;99.90
36442;DHT22;64346;50.820;16.274;2022-12-07T10:50:23;4.90;99.90
36442;DHT22;64346;50.820;16.274;2022-12-07T11:15:46;4.70;99.90
36442;DHT22;64346;50.820;16.274;2022-12-07T11:18:40;4.80;99.90
36442;DHT22;64346;50.820;16.274;2022-12-07T11:26:15;4.90;99.90
36442;DHT22;64346;50.820;16.274;2022-12-07T11:29:17;4.90;99.90
36442;DHT22;64346;50.820;16.274;2022-12-07T11:32:00;4.90;99.90
36442;DHT22;64346;50.820;16.274;2022-12-07T11:37:03;4.80;99.90
36442;DHT22;64346;50.820;16.274;2022-12-07T11:39:39;4.80;99.90
36442;DHT22;64346;50.820;16.274;2022-12-07T11:42:16;4.80;99.90
36442;DHT22;64346;50.820;16.274;2022-12-07T11:45:23;4.80;99.90
36442;DHT22;64346;50.820;16.274;2022-12-07T11:50:43;4.90;99.90
36442;DHT22;64346;50.820;16.274;2022-12-07T11:53:32;5.00;99.90
36442;DHT22;64346;50.820;16.274;2022-12-07T12:06:30;5.10;99.90
36442;DHT22;64346;50.820;16.274;2022-12-07T12:18:51;4.60;99.90
36442;DHT22;64346;50.820;16.274;2022-12-07T12:21:26;4.50;99.90
36442;DHT22;64346;50.820;16.274;2022-12-07T12:24:05;4.40;99.90
36442;DHT22;64346;50.820;16.274;2022-12-07T12:26:38;4.40;99.90
36442;DHT22;64346;50.820;16.274;2022-12-07T12:29:31;4.40;99.90
36442;DHT22;64346;50.820;16.274;2022-12-07T12:34:57;4.50;99.90
36442;DHT22;64346;50.820;16.274;2022-12-07T12:42:52;4.80;99.90
36442;DHT22;64346;50.820;16.274;2022-12-07T12:45:29;4.90;99.90
36442;DHT22;64346;50.820;16.274;2022-12-07T12:48:02;4.90;99.90
36442;DHT22;64346;50.820;16.274;2022-12-07T12:53:19;5.00;99.90
36442;DHT22;64346;50.820;16.274;2022-12-07T12:58:35;5.40;99.90
36442;DHT22;64346;50.820;16.274;2022-12-07T13:01:45;5.60;99.90
36442;DHT22;64346;50.820;16.274;2022-12-07T13:04:26;5.70;99.90
36442;DHT22;64346;50.820;16.274;2022-12-07T13:06:58;5.80;99.90
36442;DHT22;64346;50.820;16.274;2022-12-07T13:09:30;5.80;99.90
36442;DHT22;64346;50.820;16.274;2022-12-07T13:12:13;5.60;99.90
36442;DHT22;64346;50.820;16.274;2022-12-07T13:14:56;5.40;99.90
36442;DHT22;64346;50.820;16.274;2022-12-07T13:20:05;5.20;99.90
36442;DHT22;64346;50.820;16.274;2022-12-07T13:27:39;5.10;99.90
36442;DHT22;64346;50.820;16.274;2022-12-07T13:30:17;5.10;99.90
36442;DHT22;64346;50.820;16.274;2022-12-07T13:32:58;5.10;99.90
36442;DHT22;64346;50.820;16.274;2022-12-07T13:35:30;5.10;99.90
36442;DHT22;64346;50.820;16.274;2022-12-07T13:38:01;5.00;99.90
36442;DHT22;64346;50.820;16.274;2022-12-07T13:40:31;5.00;99.90
36442;DHT22;64346;50.820;16.274;2022-12-07T13:43:04;4.90;99.90
36442;DHT22;64346;50.820;16.274;2022-12-07T13:45:35;4.90;99.90
36442;DHT22;64346;50.820;16.274;2022-12-07T13:48:03;4.80;99.90
36442;DHT22;64346;50.820;16.274;2022-12-07T13:50:31;4.70;99.90
36442;DHT22;64346;50.820;16.274;2022-12-07T13:53:11;4.70;99.90
36442;DHT22;64346;50.820;16.274;2022-12-07T13:55:45;4.70;99.90
36442;DHT22;64346;50.820;16.274;2022-12-07T13:58:23;4.60;99.90
36442;DHT22;64346;50.820;16.274;2022-12-07T14:00:51;4.60;99.90
36442;DHT22;64346;50.820;16.274;2022-12-07T14:05:46;4.60;99.90
36442;DHT22;64346;50.820;16.274;2022-12-07T14:08:30;4.60;99.90
36442;DHT22;64346;50.820;16.274;2022-12-07T14:10:58;4.60;99.90
36442;DHT22;64346;50.820;16.274;2022-12-07T14:15:56;4.60;99.90
36442;DHT22;64346;50.820;16.274;2022-12-07T14:18:38;4.60;99.90
36442;DHT22;64346;50.820;16.274;2022-12-07T14:21:29;4.50;99.90
36442;DHT22;64346;50.820;16.274;2022-12-07T14:26:39;4.40;99.90
36442;DHT22;64346;50.820;16.274;2022-12-07T14:31:54;4.20;99.90
36442;DHT22;64346;50.820;16.274;2022-12-07T14:34:22;4.20;99.90
36442;DHT22;64346;50.820;16.274;2022-12-07T14:36:49;4.20;99.90
36442;DHT22;64346;50.820;16.274;2022-12-07T14:39:19;4.20;99.90
36442;DHT22;64346;50.820;16.274;2022-12-07T14:41:46;4.10;99.90
36442;DHT22;64346;50.820;16.274;2022-12-07T14:44:18;4.10;99.90
36442;DHT22;64346;50.820;16.274;2022-12-07T14:46:56;4.10;99.90
36442;DHT22;64346;50.820;16.274;2022-12-07T14:49:44;4.10;99.90
36442;DHT22;64346;50.820;16.274;2022-12-07T14:52:24;4.10;99.90
36442;DHT22;64346;50.820;16.274;2022-12-07T14:55:18;4.00;99.90
36442;DHT22;64346;50.820;16.274;2022-12-07T14:57:47;4.00;99.90
36442;DHT22;64346;50.820;16.274;2022-12-07T15:00:15;4.00;99.90
36442;DHT22;64346;50.820;16.274;2022-12-07T15:02:44;4.00;99.90
36442;DHT22;64346;50.820;16.274;2022-12-07T15:05:15;4.00;99.90
36442;DHT22;64346;50.820;16.274;2022-12-07T15:07:44;3.90;99.90
36442;DHT22;64346;50.820;16.274;2022-12-07T15:10:27;4.00;99.90
36442;DHT22;64346;50.820;16.274;2022-12-07T15:12:56;3.90;99.90
36442;DHT22;64346;50.820;16.274;2022-12-07T15:15:23;3.90;99.90
36442;DHT22;64346;50.820;16.274;2022-12-07T15:17:56;3.90;99.90
36442;DHT22;64346;50.820;16.274;2022-12-07T15:20:24;3.80;99.90
36442;DHT22;64346;50.820;16.274;2022-12-07T15:22:51;3.70;99.90
36442;DHT22;64346;50.820;16.274;2022-12-07T15:25:19;3.70;99.90
36442;DHT22;64346;50.820;16.274;2022-12-07T15:27:46;3.70;99.90
36442;DHT22;64346;50.820;16.274;2022-12-07T15:30:13;3.70;99.90
36442;DHT22;64346;50.820;16.274;2022-12-07T15:32:43;3.80;99.90
36442;DHT22;64346;50.820;16.274;2022-12-07T15:35:10;3.80;99.90
36442;DHT22;64346;50.820;16.274;2022-12-07T15:37:38;3.90;99.90
36442;DHT22;64346;50.820;16.274;2022-12-07T15:40:06;3.80;99.90
36442;DHT22;64346;50.820;16.274;2022-12-07T15:42:35;3.80;99.90
36442;DHT22;64346;50.820;16.274;2022-12-07T15:45:04;3.80;99.90
36442;DHT22;64346;50.820;16.274;2022-12-07T15:47:35;3.70;99.90
36442;DHT22;64346;50.820;16.274;2022-12-07T15:50:25;3.70;99.90
36442;DHT22;64346;50.820;16.274;2022-12-07T15:52:53;3.70;99.90
36442;DHT22;64346;50.820;16.274;2022-12-07T15:55:20;3.60;99.90
36442;DHT22;64346;50.820;16.274;2022-12-07T15:57:47;3.60;99.90
36442;DHT22;64346;50.820;16.274;2022-12-07T16:00:15;3.50;99.90
36442;DHT22;64346;50.820;16.274;2022-12-07T16:02:43;3.40;99.90
36442;DHT22;64346;50.820;16.274;2022-12-07T16:05:10;3.40;99.90
36442;DHT22;64346;50.820;16.274;2022-12-07T16:07:37;3.30;99.90
36442;DHT22;64346;50.820;16.274;2022-12-07T16:10:08;3.30;99.90
36442;DHT22;64346;50.820;16.274;2022-12-07T16:12:35;3.40;99.90
36442;DHT22;64346;50.820;16.274;2022-12-07T16:15:08;3.40;99.90
36442;DHT22;64346;50.820;16.274;2022-12-07T16:17:35;3.40;99.90
36442;DHT22;64346;50.820;16.274;2022-12-07T16:20:03;3.40;99.90
36442;DHT22;64346;50.820;16.274;2022-12-07T16:22:31;3.40;99.90
36442;DHT22;64346;50.820;16.274;2022-12-07T16:25:01;3.40;99.90
36442;DHT22;64346;50.820;16.274;2022-12-07T16:27:29;3.50;99.90
36442;DHT22;64346;50.820;16.274;2022-12-07T16:29:59;3.40;99.90
36442;DHT22;64346;50.820;16.274;2022-12-07T16:32:26;3.50;99.90
36442;DHT22;64346;50.820;16.274;2022-12-07T16:34:53;3.50;99.90
36442;DHT22;64346;50.820;16.274;2022-12-07T16:37:20;3.60;99.90
36442;DHT22;64346;50.820;16.274;2022-12-07T16:39:48;3.50;99.90
36442;DHT22;64346;50.820;16.274;2022-12-07T16:42:15;3.60;99.90
36442;DHT22;64346;50.820;16.274;2022-12-07T16:44:42;3.50;99.90
36442;DHT22;64346;50.820;16.274;2022-12-07T16:47:09;3.50;99.90
36442;DHT22;64346;50.820;16.274;2022-12-07T16:49:37;3.50;99.90
36442;DHT22;64346;50.820;16.274;2022-12-07T16:52:08;3.50;99.90
36442;DHT22;64346;50.820;16.274;2022-12-07T16:54:48;3.50;99.90
36442;DHT22;64346;50.820;16.274;2022-12-07T16:57:16;3.50;99.90
36442;DHT22;64346;50.820;16.274;2022-12-07T16:59:54;3.40;99.90
36442;DHT22;64346;50.820;16.274;2022-12-07T17:02:21;3.40;99.90
36442;DHT22;64346;50.820;16.274;2022-12-07T17:04:50;3.30;99.90
36442;DHT22;64346;50.820;16.274;2022-12-07T17:07:20;3.30;99.90
36442;DHT22;64346;50.820;16.274;2022-12-07T17:09:50;3.30;99.90
36442;DHT22;64346;50.820;16.274;2022-12-07T17:12:19;3.20;99.90
36442;DHT22;64346;50.820;16.274;2022-12-07T17:14:46;3.20;99.90
36442;DHT22;64346;50.820;16.274;2022-12-07T17:17:13;3.20;99.90
36442;DHT22;64346;50.820;16.274;2022-12-07T17:19:41;3.20;99.90
36442;DHT22;64346;50.820;16.274;2022-12-07T17:22:10;3.10;99.90
36442;DHT22;64346;50.820;16.274;2022-12-07T17:24:38;3.20;99.90
36442;DHT22;64346;50.820;16.274;2022-12-07T17:27:05;3.20;99.90
36442;DHT22;64346;50.820;16.274;2022-12-07T17:29:33;3.20;99.90
36442;DHT22;64346;50.820;16.274;2022-12-07T17:32:05;3.20;99.90
36442;DHT22;64346;50.820;16.274;2022-12-07T17:34:32;3.10;99.90
36442;DHT22;64346;50.820;16.274;2022-12-07T17:36:59;3.00;99.90
36442;DHT22;64346;50.820;16.274;2022-12-07T17:39:30;3.00;99.90
36442;DHT22;64346;50.820;16.274;2022-12-07T17:41:57;2.90;99.90
36442;DHT22;64346;50.820;16.274;2022-12-07T17:44:24;2.90;99.90
36442;DHT22;64346;50.820;16.274;2022-12-07T17:46:52;2.90;99.90
36442;DHT22;64346;50.820;16.274;2022-12-07T17:49:20;2.90;99.90
36442;DHT22;64346;50.820;16.274;2022-12-07T17:51:48;2.90;99.90
36442;DHT22;64346;50.820;16.274;2022-12-07T17:54:16;3.00;99.90
36442;DHT22;64346;50.820;16.274;2022-12-07T17:56:43;3.00;99.90
36442;DHT22;64346;50.820;16.274;2022-12-07T17:59:11;3.00;99.90
36442;DHT22;64346;50.820;16.274;2022-12-07T18:01:39;3.10;99.90
36442;DHT22;64346;50.820;16.274;2022-12-07T18:04:06;3.10;99.90
36442;DHT22;64346;50.820;16.274;2022-12-07T18:06:34;3.10;99.90
36442;DHT22;64346;50.820;16.274;2022-12-07T18:09:05;3.20;99.90